Observations for Trim Patrick St
| Time | AQI | Temp °C | Hum % | Pres Pa | CO μg/m³ | H₂S μg/m³ | NO μg/m³ | NO₂ μg/m³ | O₃ μg/m³ | SO₂ μg/m³ | PM1 μg/m³ | PM2.5 μg/m³ | PM10 μg/m³ |
|---|---|---|---|---|---|---|---|---|---|---|---|---|---|
| Sunday 9 August 2026 | |||||||||||||
| 03:27 | 2 | 18.6 | 68 | 80,034 | 0 | 0 | 2.05 | 18.73 | 52.17 | 0 | 2.86 | 7.45 | 8.2 |
| 03:26 | 2 | 18.7 | 67 | 80,168 | 0 | 0 | 1.95 | 11.89 | 36.39 | 0 | 3.71 | 6.77 | 7.45 |
| 03:25 | 2 | 18.6 | 68 | 80,280 | 0 | 0 | 2.1 | 12.13 | 38.4 | 0 | 2.86 | 6.03 | 6.63 |
| 03:24 | 2 | 18.7 | 68 | 80,380 | 0 | 0 | 2.17 | 13.01 | 38.38 | 0 | 2 | 6.02 | 6.63 |
| 03:23 | 2 | 18.6 | 68 | 80,492 | 0 | 0 | 2.01 | 12.69 | 36.56 | 0 | 2 | 5.99 | 6.59 |
| 03:22 | 2 | 18.7 | 68 | 80,577 | 0 | 0.52 | 1.8 | 13.66 | 53.33 | 0 | 2.86 | 5.98 | 6.58 |
| 03:21 | 2 | 18.6 | 68 | 80,707 | 0.01 | 0 | 2.04 | 12.98 | 36.05 | 0 | 3.71 | 7.48 | 8.23 |
| 03:18 | 2 | 18.6 | 68 | 81,006 | 0.01 | 0.73 | 1.8 | 15.58 | 41.37 | 0 | 3.71 | 8.15 | 8.97 |
| 03:16 | 2 | 18.6 | 68 | 81,222 | 0.01 | 0 | 1.78 | 9.84 | 39.5 | 0.31 | 4.57 | 8.14 | 8.96 |
| 03:15 | 2 | 18.6 | 68 | 81,396 | 0.02 | 0.15 | 1.7 | 13.45 | 41.51 | 0 | 2.86 | 6.69 | 7.36 |
| 03:12 | 2 | 18.6 | 69 | 81,713 | 0 | 0 | 1.75 | 12.71 | 39.82 | 0 | 2 | 5.96 | 6.55 |
| 03:11 | 2 | 18.6 | 68 | 81,773 | 0 | 0.73 | 1.78 | 13.26 | 46.69 | 0 | 3.71 | 7.42 | 8.16 |
| 03:09 | 2 | 18.6 | 69 | 81,951 | 0.01 | 0 | 1.93 | 14.92 | 37.49 | 0 | 2 | 5.96 | 6.56 |
| 03:08 | 2 | 18.6 | 69 | 82,025 | 0.01 | 0.52 | 2 | 13.58 | 41.45 | 0 | 2.86 | 6.69 | 7.36 |
| 03:07 | 2 | 18.6 | 69 | 82,105 | 0 | 0 | 2.12 | 13.06 | 37.15 | 0 | 3.71 | 6.68 | 7.35 |
| 03:06 | 2 | 18.6 | 69 | 82,175 | 0.01 | 0.2 | 1.99 | 12.71 | 40.84 | 0.1 | 2.86 | 6.68 | 7.35 |
| 03:05 | 2 | 18.6 | 69 | 82,217 | 0 | 0.18 | 1.88 | 17.49 | 35.47 | 0 | 2 | 5.96 | 6.55 |
| 03:04 | 2 | 18.7 | 69 | 82,260 | 0 | 0 | 1.6 | 10.25 | 38.62 | 0 | 2.86 | 6.68 | 7.35 |
| 03:03 | 2 | 18.6 | 69 | 82,413 | 0 | 1.25 | 1.83 | 13.07 | 42.03 | 0 | 2.86 | 6.69 | 7.36 |
| 03:02 | 2 | 18.6 | 69 | 82,516 | 0.01 | 1.67 | 1.53 | 18.69 | 51.59 | 0 | 2.86 | 6.69 | 7.36 |